PDT,Max TemperatureF,Mean TemperatureF,Min TemperatureF,Max Dew PointF,MeanDew PointF,Min DewpointF,Max Humidity, Mean Humidity, Min Humidity, Max Sea Level PressureIn, Mean Sea Level PressureIn, Min Sea Level PressureIn, Max VisibilityMiles, Mean VisibilityMiles, Min VisibilityMiles, Max Wind SpeedMPH, Mean Wind SpeedMPH, Max Gust SpeedMPH,PrecipitationIn, CloudCover, Events, WindDirDegrees
2013-9-1,75,62,51,61,56,50,100,88,50,29.99,29.95,29.92,10,8,0,8,3,,0.01,4,Fog,152
2013-9-2,70,62,55,61,59,55,100,94,68,29.99,29.96,29.93,10,6,0,8,2,,0.01,7,Fog-Rain,272
2013-9-3,68,60,51,59,55,49,100,84,52,30.05,30.02,29.99,10,10,10,9,3,,0.01,0,,300
2013-9-4,69,60,51,59,56,50,100,92,63,30.11,30.06,30.02,10,7,0,13,3,,0.00,4,Fog,338
2013-9-5,68,60,55,57,55,53,100,89,65,30.13,30.06,30.02,10,6,1,14,2,,0.00,4,,328
2013-9-6,75,60,48,56,53,48,100,83,51,30.14,30.09,29.99,10,10,2,18,4,33,0.01,2,,13
2013-9-7,64,58,53,57,55,53,100,91,75,29.98,29.94,29.92,10,6,0,10,3,,0.00,6,Fog,288
2013-9-8,63,58,55,57,55,54,100,91,77,29.95,29.90,29.82,10,6,0,8,4,,0.00,5,Fog,274
2013-9-9,72,60,52,58,55,51,97,85,68,29.84,29.80,29.75,10,10,8,7,2,,0.00,0,,233
2013-9-10,63,56,51,57,54,50,100,91,75,29.87,29.80,29.73,10,10,6,16,3,21,0.01,4,,282
2013-9-11,70,61,53,58,56,52,100,87,64,30.02,29.97,29.86,10,9,4,8,3,,0.00,8,,259
2013-9-12,63,60,57,58,57,55,96,88,77,30.03,29.99,29.97,10,5,0,12,3,,0.00,8,Fog,327
2013-9-13,64,60,57,56,55,55,94,88,73,30.00,29.95,29.87,10,8,2,10,2,,0.01,8,,335
2013-9-14,62,60,57,58,56,55,94,90,77,29.88,29.85,29.82,10,7,2,9,3,,0.03,8,,205
2013-9-15,70,62,54,57,55,50,100,84,53,29.95,29.85,29.81,10,6,0,15,1,,0.02,6,Fog,321
2013-9-16,68,59,50,56,53,47,93,80,61,29.99,29.95,29.92,10,10,4,17,5,18,0.00,1,,346
2013-9-17,64,58,50,57,55,49,100,88,70,30.07,29.96,29.91,10,5,0,21,7,28,0.18,6,Fog-Rain,329
2013-9-18,70,58,46,53,49,44,94,82,46,30.07,30.03,29.99,10,10,8,18,3,16,0.01,2,,338
2013-9-19,63,54,48,54,50,45,100,88,72,29.98,29.92,29.86,10,7,1,12,2,,0.01,4,,99
2013-9-20,73,59,46,61,54,45,96,85,47,29.85,29.77,29.74,10,8,0,15,5,24,0.61,6,Fog-Rain,172
2013-9-21,66,60,55,56,55,52,94,85,70,29.93,29.78,29.71,10,8,1,13,6,,0.56,6,Rain,193
2013-9-22,66,60,53,56,53,49,94,82,54,30.01,29.98,29.92,10,8,2,10,5,,0.12,7,Rain,140
2013-9-23,69,62,55,61,57,53,94,85,61,30.08,30.03,29.99,10,8,2,10,6,,0.10,6,Rain,138
2013-9-24,66,59,53,57,54,51,94,84,72,30.07,30.03,30.01,10,8,2,13,4,,0.16,7,Rain,275
2013-9-25,63,54,44,50,47,43,100,80,55,30.04,30.01,29.97,10,9,2,15,5,21,0.04,2,Rain,17
2013-9-26,64,52,41,50,45,39,93,76,48,30.15,30.08,30.03,10,10,7,21,5,30,0.01,0,,3
2013-9-27,66,53,42,49,45,40,93,76,46,30.21,30.17,30.12,10,10,10,16,4,,0.01,0,,15
2013-9-28,68,58,48,57,51,44,87,73,55,30.12,30.04,29.95,10,10,6,18,7,32,0.03,6,Rain,174
2013-9-29,64,62,60,63,60,57,94,92,84,29.98,29.93,29.90,10,4,1,18,12,25,1.87,8,Rain,184
2013-9-30,66,57,50,61,54,46,100,84,56,30.10,30.01,29.90,10,6,1,25,10,33,0.61,6,Rain,302